sensor_id;sensor_type;location;lat;lon;timestamp;temperature;humidity
80279;DHT22;70683;52.492;13.416;2023-11-18T00:00:23;7.50;91.20
80279;DHT22;70683;52.492;13.416;2023-11-18T00:02:50;7.60;90.90
80279;DHT22;70683;52.492;13.416;2023-11-18T00:05:17;7.60;90.90
80279;DHT22;70683;52.492;13.416;2023-11-18T00:07:44;7.70;90.80
80279;DHT22;70683;52.492;13.416;2023-11-18T00:10:11;7.60;90.70
80279;DHT22;70683;52.492;13.416;2023-11-18T00:12:38;7.60;90.80
80279;DHT22;70683;52.492;13.416;2023-11-18T00:15:08;7.60;91.10
80279;DHT22;70683;52.492;13.416;2023-11-18T00:17:36;7.50;91.30
80279;DHT22;70683;52.492;13.416;2023-11-18T00:20:03;7.60;91.00
80279;DHT22;70683;52.492;13.416;2023-11-18T00:22:32;7.50;90.90
80279;DHT22;70683;52.492;13.416;2023-11-18T00:24:59;7.40;91.10
80279;DHT22;70683;52.492;13.416;2023-11-18T00:27:25;7.50;91.20
80279;DHT22;70683;52.492;13.416;2023-11-18T00:29:53;7.50;91.00
80279;DHT22;70683;52.492;13.416;2023-11-18T00:32:19;7.40;91.20
80279;DHT22;70683;52.492;13.416;2023-11-18T00:34:46;7.40;91.10
80279;DHT22;70683;52.492;13.416;2023-11-18T00:37:13;7.30;91.40
80279;DHT22;70683;52.492;13.416;2023-11-18T00:39:39;7.30;91.50
80279;DHT22;70683;52.492;13.416;2023-11-18T00:42:07;7.40;91.40
80279;DHT22;70683;52.492;13.416;2023-11-18T00:44:33;7.30;91.40
80279;DHT22;70683;52.492;13.416;2023-11-18T00:47:00;7.30;91.50
80279;DHT22;70683;52.492;13.416;2023-11-18T00:49:28;7.30;91.70
80279;DHT22;70683;52.492;13.416;2023-11-18T00:51:56;7.40;91.40
80279;DHT22;70683;52.492;13.416;2023-11-18T00:54:22;7.40;91.20
80279;DHT22;70683;52.492;13.416;2023-11-18T00:56:49;7.50;91.20
80279;DHT22;70683;52.492;13.416;2023-11-18T00:59:16;7.50;90.90
80279;DHT22;70683;52.492;13.416;2023-11-18T01:01:43;7.50;91.20
80279;DHT22;70683;52.492;13.416;2023-11-18T01:04:09;7.40;91.10
80279;DHT22;70683;52.492;13.416;2023-11-18T01:06:36;7.40;91.30
80279;DHT22;70683;52.492;13.416;2023-11-18T01:09:02;7.40;91.50
80279;DHT22;70683;52.492;13.416;2023-11-18T01:11:29;7.40;91.30
80279;DHT22;70683;52.492;13.416;2023-11-18T01:13:56;7.40;91.40
80279;DHT22;70683;52.492;13.416;2023-11-18T01:16:23;7.40;91.40
80279;DHT22;70683;52.492;13.416;2023-11-18T01:18:49;7.40;91.20
80279;DHT22;70683;52.492;13.416;2023-11-18T01:21:16;7.40;91.10
80279;DHT22;70683;52.492;13.416;2023-11-18T01:23:43;7.50;90.90
80279;DHT22;70683;52.492;13.416;2023-11-18T01:26:11;7.50;91.00
80279;DHT22;70683;52.492;13.416;2023-11-18T01:28:38;7.50;91.00
80279;DHT22;70683;52.492;13.416;2023-11-18T01:31:08;7.50;91.20
80279;DHT22;70683;52.492;13.416;2023-11-18T01:33:37;7.60;90.80
80279;DHT22;70683;52.492;13.416;2023-11-18T01:36:06;7.60;90.80
80279;DHT22;70683;52.492;13.416;2023-11-18T01:38:36;7.70;90.80
80279;DHT22;70683;52.492;13.416;2023-11-18T01:41:04;7.60;90.80
80279;DHT22;70683;52.492;13.416;2023-11-18T01:43:31;7.70;90.60
80279;DHT22;70683;52.492;13.416;2023-11-18T01:45:59;7.70;91.00
80279;DHT22;70683;52.492;13.416;2023-11-18T01:48:28;7.70;90.40
80279;DHT22;70683;52.492;13.416;2023-11-18T01:50:57;7.70;90.50
80279;DHT22;70683;52.492;13.416;2023-11-18T01:53:25;7.70;90.40
80279;DHT22;70683;52.492;13.416;2023-11-18T01:55:53;7.60;90.60
80279;DHT22;70683;52.492;13.416;2023-11-18T01:58:21;7.50;90.80
80279;DHT22;70683;52.492;13.416;2023-11-18T02:00:50;7.50;90.70
80279;DHT22;70683;52.492;13.416;2023-11-18T02:03:18;7.50;91.00
80279;DHT22;70683;52.492;13.416;2023-11-18T02:05:46;7.60;91.10
80279;DHT22;70683;52.492;13.416;2023-11-18T02:08:13;7.40;91.10
80279;DHT22;70683;52.492;13.416;2023-11-18T02:10:46;7.40;91.20
80279;DHT22;70683;52.492;13.416;2023-11-18T02:13:22;7.50;90.90
80279;DHT22;70683;52.492;13.416;2023-11-18T02:15:53;7.50;90.90
80279;DHT22;70683;52.492;13.416;2023-11-18T02:18:27;7.60;90.80
80279;DHT22;70683;52.492;13.416;2023-11-18T02:20:56;7.60;90.60
80279;DHT22;70683;52.492;13.416;2023-11-18T02:23:24;7.60;90.80
80279;DHT22;70683;52.492;13.416;2023-11-18T02:25:52;7.40;90.90
80279;DHT22;70683;52.492;13.416;2023-11-18T02:28:19;7.40;91.10
80279;DHT22;70683;52.492;13.416;2023-11-18T02:30:46;7.30;91.10
80279;DHT22;70683;52.492;13.416;2023-11-18T02:33:19;7.30;91.30
80279;DHT22;70683;52.492;13.416;2023-11-18T02:35:53;7.30;91.30
80279;DHT22;70683;52.492;13.416;2023-11-18T02:38:30;7.40;91.30
80279;DHT22;70683;52.492;13.416;2023-11-18T02:40:56;7.40;91.00
80279;DHT22;70683;52.492;13.416;2023-11-18T02:43:25;7.50;90.80
80279;DHT22;70683;52.492;13.416;2023-11-18T02:45:55;7.50;90.70
80279;DHT22;70683;52.492;13.416;2023-11-18T02:48:23;7.30;91.00
80279;DHT22;70683;52.492;13.416;2023-11-18T02:50:52;7.30;91.20
80279;DHT22;70683;52.492;13.416;2023-11-18T02:53:18;7.30;91.10
80279;DHT22;70683;52.492;13.416;2023-11-18T02:55:45;7.30;91.40
80279;DHT22;70683;52.492;13.416;2023-11-18T02:58:12;7.20;91.40
80279;DHT22;70683;52.492;13.416;2023-11-18T03:00:39;7.30;91.50
80279;DHT22;70683;52.492;13.416;2023-11-18T03:03:05;7.20;91.40
80279;DHT22;70683;52.492;13.416;2023-11-18T03:05:32;7.30;91.50
80279;DHT22;70683;52.492;13.416;2023-11-18T03:07:59;7.30;91.40
80279;DHT22;70683;52.492;13.416;2023-11-18T03:10:26;7.30;91.20
80279;DHT22;70683;52.492;13.416;2023-11-18T03:12:53;7.30;91.10
80279;DHT22;70683;52.492;13.416;2023-11-18T03:15:21;7.30;91.10
80279;DHT22;70683;52.492;13.416;2023-11-18T03:17:49;7.30;91.20
80279;DHT22;70683;52.492;13.416;2023-11-18T03:20:17;7.20;91.20
80279;DHT22;70683;52.492;13.416;2023-11-18T03:22:44;7.00;91.70
80279;DHT22;70683;52.492;13.416;2023-11-18T03:25:12;7.00;92.00
80279;DHT22;70683;52.492;13.416;2023-11-18T03:27:39;7.00;91.80
80279;DHT22;70683;52.492;13.416;2023-11-18T03:30:06;7.10;92.00
80279;DHT22;70683;52.492;13.416;2023-11-18T03:32:35;7.10;91.60
80279;DHT22;70683;52.492;13.416;2023-11-18T03:35:02;7.10;91.90
80279;DHT22;70683;52.492;13.416;2023-11-18T03:37:30;7.10;91.60
80279;DHT22;70683;52.492;13.416;2023-11-18T03:39:57;7.00;91.70
80279;DHT22;70683;52.492;13.416;2023-11-18T03:42:24;7.10;91.70
80279;DHT22;70683;52.492;13.416;2023-11-18T03:44:50;7.20;91.70
80279;DHT22;70683;52.492;13.416;2023-11-18T03:47:17;7.30;91.50
80279;DHT22;70683;52.492;13.416;2023-11-18T03:49:44;7.30;91.30
80279;DHT22;70683;52.492;13.416;2023-11-18T03:52:10;7.30;91.40
80279;DHT22;70683;52.492;13.416;2023-11-18T03:54:38;7.30;91.40
80279;DHT22;70683;52.492;13.416;2023-11-18T03:57:04;7.30;91.10
80279;DHT22;70683;52.492;13.416;2023-11-18T03:59:31;7.40;91.10
80279;DHT22;70683;52.492;13.416;2023-11-18T04:01:57;7.30;91.10
80279;DHT22;70683;52.492;13.416;2023-11-18T04:04:25;7.20;91.20
80279;DHT22;70683;52.492;13.416;2023-11-18T04:06:51;7.20;91.40
80279;DHT22;70683;52.492;13.416;2023-11-18T04:09:18;7.20;91.20
80279;DHT22;70683;52.492;13.416;2023-11-18T04:11:45;7.20;91.40
80279;DHT22;70683;52.492;13.416;2023-11-18T04:14:12;7.20;91.50
80279;DHT22;70683;52.492;13.416;2023-11-18T04:16:39;7.30;91.10
80279;DHT22;70683;52.492;13.416;2023-11-18T04:19:06;7.30;91.10
80279;DHT22;70683;52.492;13.416;2023-11-18T04:21:32;7.30;91.20
80279;DHT22;70683;52.492;13.416;2023-11-18T04:23:59;7.30;91.40
80279;DHT22;70683;52.492;13.416;2023-11-18T04:26:26;7.30;91.30
80279;DHT22;70683;52.492;13.416;2023-11-18T04:28:52;7.40;91.20
80279;DHT22;70683;52.492;13.416;2023-11-18T04:31:19;7.40;91.20
80279;DHT22;70683;52.492;13.416;2023-11-18T04:33:47;7.50;90.90
80279;DHT22;70683;52.492;13.416;2023-11-18T04:36:14;7.40;90.90
80279;DHT22;70683;52.492;13.416;2023-11-18T04:38:42;7.40;91.30
80279;DHT22;70683;52.492;13.416;2023-11-18T04:41:10;7.40;91.10
80279;DHT22;70683;52.492;13.416;2023-11-18T04:43:37;7.40;90.90
80279;DHT22;70683;52.492;13.416;2023-11-18T04:46:06;7.40;90.80
80279;DHT22;70683;52.492;13.416;2023-11-18T04:48:32;7.40;91.00
80279;DHT22;70683;52.492;13.416;2023-11-18T04:51:00;7.50;91.00
80279;DHT22;70683;52.492;13.416;2023-11-18T04:53:27;7.40;90.90
80279;DHT22;70683;52.492;13.416;2023-11-18T04:55:53;7.40;90.90
80279;DHT22;70683;52.492;13.416;2023-11-18T04:58:20;7.40;91.00
80279;DHT22;70683;52.492;13.416;2023-11-18T05:00:47;7.30;91.30
80279;DHT22;70683;52.492;13.416;2023-11-18T05:03:16;7.30;91.50
80279;DHT22;70683;52.492;13.416;2023-11-18T05:05:43;7.30;91.20
80279;DHT22;70683;52.492;13.416;2023-11-18T05:08:19;7.30;91.70
80279;DHT22;70683;52.492;13.416;2023-11-18T05:10:48;7.30;91.40
80279;DHT22;70683;52.492;13.416;2023-11-18T05:13:15;7.30;91.50
80279;DHT22;70683;52.492;13.416;2023-11-18T05:15:43;7.30;91.50
80279;DHT22;70683;52.492;13.416;2023-11-18T05:18:13;7.30;91.40
80279;DHT22;70683;52.492;13.416;2023-11-18T05:20:41;7.30;91.50
80279;DHT22;70683;52.492;13.416;2023-11-18T05:23:08;7.30;91.50
80279;DHT22;70683;52.492;13.416;2023-11-18T05:25:40;7.40;91.40
80279;DHT22;70683;52.492;13.416;2023-11-18T05:28:07;7.40;91.20
80279;DHT22;70683;52.492;13.416;2023-11-18T05:30:36;7.40;91.00
80279;DHT22;70683;52.492;13.416;2023-11-18T05:33:03;7.40;91.10
80279;DHT22;70683;52.492;13.416;2023-11-18T05:35:32;7.30;91.30
80279;DHT22;70683;52.492;13.416;2023-11-18T05:37:59;7.20;91.30
80279;DHT22;70683;52.492;13.416;2023-11-18T05:40:26;7.20;91.50
80279;DHT22;70683;52.492;13.416;2023-11-18T05:42:55;7.20;91.50
80279;DHT22;70683;52.492;13.416;2023-11-18T05:45:23;7.20;91.50
80279;DHT22;70683;52.492;13.416;2023-11-18T05:47:54;7.20;91.70
80279;DHT22;70683;52.492;13.416;2023-11-18T05:50:21;7.30;91.50
80279;DHT22;70683;52.492;13.416;2023-11-18T05:52:51;7.30;91.20
80279;DHT22;70683;52.492;13.416;2023-11-18T05:55:18;7.30;91.30
80279;DHT22;70683;52.492;13.416;2023-11-18T05:57:45;7.30;91.50
80279;DHT22;70683;52.492;13.416;2023-11-18T06:00:14;7.20;91.60
80279;DHT22;70683;52.492;13.416;2023-11-18T06:02:42;7.30;91.40
80279;DHT22;70683;52.492;13.416;2023-11-18T06:05:10;7.30;91.50
80279;DHT22;70683;52.492;13.416;2023-11-18T06:07:39;7.30;91.40
80279;DHT22;70683;52.492;13.416;2023-11-18T06:12:51;7.30;91.10
80279;DHT22;70683;52.492;13.416;2023-11-18T06:15:19;7.30;91.30
80279;DHT22;70683;52.492;13.416;2023-11-18T06:17:47;7.20;91.10
80279;DHT22;70683;52.492;13.416;2023-11-18T06:20:14;7.20;91.30
80279;DHT22;70683;52.492;13.416;2023-11-18T06:22:43;7.20;91.10
80279;DHT22;70683;52.492;13.416;2023-11-18T06:25:09;7.10;91.20
80279;DHT22;70683;52.492;13.416;2023-11-18T06:27:38;7.10;91.40
80279;DHT22;70683;52.492;13.416;2023-11-18T06:30:05;7.00;91.70
80279;DHT22;70683;52.492;13.416;2023-11-18T06:32:32;6.90;91.70
80279;DHT22;70683;52.492;13.416;2023-11-18T06:34:59;6.90;91.90
80279;DHT22;70683;52.492;13.416;2023-11-18T06:37:32;6.90;91.90
80279;DHT22;70683;52.492;13.416;2023-11-18T06:39:59;6.80;91.90
80279;DHT22;70683;52.492;13.416;2023-11-18T06:42:25;6.90;92.10
80279;DHT22;70683;52.492;13.416;2023-11-18T06:44:52;6.90;92.20
80279;DHT22;70683;52.492;13.416;2023-11-18T06:47:19;7.00;92.10
80279;DHT22;70683;52.492;13.416;2023-11-18T06:49:46;7.10;91.70
80279;DHT22;70683;52.492;13.416;2023-11-18T06:52:13;7.10;91.60
80279;DHT22;70683;52.492;13.416;2023-11-18T06:54:41;7.10;91.70
80279;DHT22;70683;52.492;13.416;2023-11-18T06:57:08;7.20;91.60
80279;DHT22;70683;52.492;13.416;2023-11-18T06:59:34;7.20;91.50
80279;DHT22;70683;52.492;13.416;2023-11-18T07:02:02;7.20;91.50
80279;DHT22;70683;52.492;13.416;2023-11-18T07:04:30;7.10;91.30
80279;DHT22;70683;52.492;13.416;2023-11-18T07:06:57;7.20;91.50
80279;DHT22;70683;52.492;13.416;2023-11-18T07:09:23;7.20;91.20
80279;DHT22;70683;52.492;13.416;2023-11-18T07:11:51;7.20;91.20
80279;DHT22;70683;52.492;13.416;2023-11-18T07:14:18;7.30;91.30
80279;DHT22;70683;52.492;13.416;2023-11-18T07:16:45;7.30;91.00
80279;DHT22;70683;52.492;13.416;2023-11-18T07:19:12;7.30;90.90
80279;DHT22;70683;52.492;13.416;2023-11-18T07:21:41;7.30;91.00
80279;DHT22;70683;52.492;13.416;2023-11-18T07:24:07;7.30;91.10
80279;DHT22;70683;52.492;13.416;2023-11-18T07:26:34;7.20;90.80
80279;DHT22;70683;52.492;13.416;2023-11-18T07:29:00;7.20;91.00
80279;DHT22;70683;52.492;13.416;2023-11-18T07:31:27;7.10;91.40
80279;DHT22;70683;52.492;13.416;2023-11-18T07:33:55;7.20;91.20
80279;DHT22;70683;52.492;13.416;2023-11-18T07:36:22;7.30;91.10
80279;DHT22;70683;52.492;13.416;2023-11-18T07:38:48;7.30;91.20
80279;DHT22;70683;52.492;13.416;2023-11-18T07:41:17;7.30;90.90
80279;DHT22;70683;52.492;13.416;2023-11-18T07:43:50;7.30;91.00
80279;DHT22;70683;52.492;13.416;2023-11-18T07:46:19;7.40;90.60
80279;DHT22;70683;52.492;13.416;2023-11-18T07:48:49;7.40;90.80
80279;DHT22;70683;52.492;13.416;2023-11-18T07:51:18;7.40;90.60
80279;DHT22;70683;52.492;13.416;2023-11-18T07:53:48;7.50;90.50
80279;DHT22;70683;52.492;13.416;2023-11-18T07:56:15;7.50;90.50
80279;DHT22;70683;52.492;13.416;2023-11-18T07:58:43;7.40;90.60
80279;DHT22;70683;52.492;13.416;2023-11-18T08:01:13;7.50;90.70
80279;DHT22;70683;52.492;13.416;2023-11-18T08:03:42;7.40;90.70
80279;DHT22;70683;52.492;13.416;2023-11-18T08:06:10;7.50;90.50
80279;DHT22;70683;52.492;13.416;2023-11-18T08:08:38;7.50;90.60
80279;DHT22;70683;52.492;13.416;2023-11-18T08:11:05;7.50;90.30
80279;DHT22;70683;52.492;13.416;2023-11-18T08:13:32;7.40;90.10
80279;DHT22;70683;52.492;13.416;2023-11-18T08:15:58;7.40;90.50
80279;DHT22;70683;52.492;13.416;2023-11-18T08:18:25;7.40;90.50
80279;DHT22;70683;52.492;13.416;2023-11-18T08:20:53;7.40;90.40
80279;DHT22;70683;52.492;13.416;2023-11-18T08:23:21;7.40;90.30
80279;DHT22;70683;52.492;13.416;2023-11-18T08:25:47;7.40;90.10
80279;DHT22;70683;52.492;13.416;2023-11-18T08:28:16;7.50;90.20
80279;DHT22;70683;52.492;13.416;2023-11-18T08:30:43;7.50;90.20
80279;DHT22;70683;52.492;13.416;2023-11-18T08:33:09;7.60;90.30
80279;DHT22;70683;52.492;13.416;2023-11-18T08:35:37;7.60;90.20
80279;DHT22;70683;52.492;13.416;2023-11-18T08:38:04;7.50;90.20
80279;DHT22;70683;52.492;13.416;2023-11-18T08:40:32;7.60;90.00
80279;DHT22;70683;52.492;13.416;2023-11-18T08:43:00;7.50;90.20
80279;DHT22;70683;52.492;13.416;2023-11-18T08:45:28;7.50;90.40
80279;DHT22;70683;52.492;13.416;2023-11-18T08:47:57;7.60;90.70
80279;DHT22;70683;52.492;13.416;2023-11-18T08:50:24;7.50;90.20
80279;DHT22;70683;52.492;13.416;2023-11-18T08:52:52;7.60;90.00
80279;DHT22;70683;52.492;13.416;2023-11-18T08:55:21;7.70;90.00
80279;DHT22;70683;52.492;13.416;2023-11-18T08:57:50;7.60;89.80
80279;DHT22;70683;52.492;13.416;2023-11-18T09:00:27;7.70;89.10
80279;DHT22;70683;52.492;13.416;2023-11-18T09:03:00;7.80;88.30
80279;DHT22;70683;52.492;13.416;2023-11-18T09:05:27;7.80;88.70
80279;DHT22;70683;52.492;13.416;2023-11-18T09:07:56;7.80;88.60
80279;DHT22;70683;52.492;13.416;2023-11-18T09:10:23;7.90;88.70
80279;DHT22;70683;52.492;13.416;2023-11-18T09:12:50;7.90;88.30
80279;DHT22;70683;52.492;13.416;2023-11-18T09:15:19;8.00;87.70
80279;DHT22;70683;52.492;13.416;2023-11-18T09:17:48;7.90;88.30
80279;DHT22;70683;52.492;13.416;2023-11-18T09:20:15;8.00;88.50
80279;DHT22;70683;52.492;13.416;2023-11-18T09:22:45;8.00;88.00
80279;DHT22;70683;52.492;13.416;2023-11-18T09:25:12;8.10;87.30
80279;DHT22;70683;52.492;13.416;2023-11-18T09:27:39;8.20;87.30
80279;DHT22;70683;52.492;13.416;2023-11-18T09:30:06;8.20;86.50
80279;DHT22;70683;52.492;13.416;2023-11-18T09:32:35;8.30;86.30
80279;DHT22;70683;52.492;13.416;2023-11-18T09:35:02;8.20;86.40
80279;DHT22;70683;52.492;13.416;2023-11-18T09:37:30;8.20;86.90
80279;DHT22;70683;52.492;13.416;2023-11-18T09:39:57;8.20;86.40
80279;DHT22;70683;52.492;13.416;2023-11-18T09:42:24;8.30;85.50
80279;DHT22;70683;52.492;13.416;2023-11-18T09:44:51;8.20;85.80
80279;DHT22;70683;52.492;13.416;2023-11-18T09:47:21;8.20;86.30
80279;DHT22;70683;52.492;13.416;2023-11-18T09:49:52;8.10;85.80
80279;DHT22;70683;52.492;13.416;2023-11-18T09:52:21;8.20;85.90
80279;DHT22;70683;52.492;13.416;2023-11-18T09:55:03;8.10;85.80
80279;DHT22;70683;52.492;13.416;2023-11-18T09:57:33;8.20;86.30
80279;DHT22;70683;52.492;13.416;2023-11-18T10:00:04;8.20;85.40
80279;DHT22;70683;52.492;13.416;2023-11-18T10:02:53;8.20;85.60
80279;DHT22;70683;52.492;13.416;2023-11-18T10:05:22;8.30;84.80
80279;DHT22;70683;52.492;13.416;2023-11-18T10:07:51;8.30;85.00
80279;DHT22;70683;52.492;13.416;2023-11-18T10:10:17;8.30;84.60
80279;DHT22;70683;52.492;13.416;2023-11-18T10:12:48;8.40;85.10
80279;DHT22;70683;52.492;13.416;2023-11-18T10:15:20;8.40;84.70
80279;DHT22;70683;52.492;13.416;2023-11-18T10:17:50;8.40;84.70
80279;DHT22;70683;52.492;13.416;2023-11-18T10:20:45;8.50;84.50
80279;DHT22;70683;52.492;13.416;2023-11-18T10:23:14;8.50;83.90
80279;DHT22;70683;52.492;13.416;2023-11-18T10:25:50;8.60;83.70
80279;DHT22;70683;52.492;13.416;2023-11-18T10:28:32;8.60;83.20
80279;DHT22;70683;52.492;13.416;2023-11-18T10:31:01;8.70;83.50
80279;DHT22;70683;52.492;13.416;2023-11-18T10:33:32;8.80;82.60
80279;DHT22;70683;52.492;13.416;2023-11-18T10:35:59;8.80;82.30
80279;DHT22;70683;52.492;13.416;2023-11-18T10:38:33;8.90;81.70
80279;DHT22;70683;52.492;13.416;2023-11-18T10:41:02;8.90;81.80
80279;DHT22;70683;52.492;13.416;2023-11-18T10:43:29;9.00;81.70
80279;DHT22;70683;52.492;13.416;2023-11-18T10:46:04;9.00;82.20
80279;DHT22;70683;52.492;13.416;2023-11-18T10:48:31;9.10;82.10
80279;DHT22;70683;52.492;13.416;2023-11-18T10:50:58;9.10;82.20
80279;DHT22;70683;52.492;13.416;2023-11-18T10:53:25;9.10;82.50
80279;DHT22;70683;52.492;13.416;2023-11-18T10:55:54;9.10;83.40
80279;DHT22;70683;52.492;13.416;2023-11-18T10:58:22;9.20;82.30
80279;DHT22;70683;52.492;13.416;2023-11-18T11:00:52;9.30;82.00
80279;DHT22;70683;52.492;13.416;2023-11-18T11:03:22;9.30;82.20
80279;DHT22;70683;52.492;13.416;2023-11-18T11:05:50;9.30;81.80
80279;DHT22;70683;52.492;13.416;2023-11-18T11:08:17;9.40;81.20
80279;DHT22;70683;52.492;13.416;2023-11-18T11:10:44;9.30;81.20
80279;DHT22;70683;52.492;13.416;2023-11-18T11:13:12;9.40;81.40
80279;DHT22;70683;52.492;13.416;2023-11-18T11:15:42;9.40;81.10
80279;DHT22;70683;52.492;13.416;2023-11-18T11:18:15;9.40;81.40
80279;DHT22;70683;52.492;13.416;2023-11-18T11:20:53;9.50;81.20
80279;DHT22;70683;52.492;13.416;2023-11-18T11:23:29;9.50;80.70
80279;DHT22;70683;52.492;13.416;2023-11-18T11:26:06;9.50;80.20
80279;DHT22;70683;52.492;13.416;2023-11-18T11:28:43;9.50;80.40
80279;DHT22;70683;52.492;13.416;2023-11-18T11:31:17;9.50;80.40
80279;DHT22;70683;52.492;13.416;2023-11-18T11:33:52;9.40;80.70
80279;DHT22;70683;52.492;13.416;2023-11-18T11:36:21;9.50;80.80
80279;DHT22;70683;52.492;13.416;2023-11-18T11:38:51;9.40;81.10
80279;DHT22;70683;52.492;13.416;2023-11-18T11:41:19;9.40;81.30
80279;DHT22;70683;52.492;13.416;2023-11-18T11:43:49;9.40;82.10
80279;DHT22;70683;52.492;13.416;2023-11-18T11:46:17;9.50;82.20
80279;DHT22;70683;52.492;13.416;2023-11-18T11:48:46;9.60;81.20
80279;DHT22;70683;52.492;13.416;2023-11-18T11:51:22;9.60;80.30
80279;DHT22;70683;52.492;13.416;2023-11-18T11:54:12;9.70;80.00
80279;DHT22;70683;52.492;13.416;2023-11-18T11:56:45;9.70;79.80
80279;DHT22;70683;52.492;13.416;2023-11-18T11:59:16;9.70;79.80
80279;DHT22;70683;52.492;13.416;2023-11-18T12:01:42;9.70;80.00
80279;DHT22;70683;52.492;13.416;2023-11-18T12:04:14;9.60;80.30
80279;DHT22;70683;52.492;13.416;2023-11-18T12:06:48;9.70;80.00
80279;DHT22;70683;52.492;13.416;2023-11-18T12:09:17;9.70;79.80
80279;DHT22;70683;52.492;13.416;2023-11-18T12:11:46;9.70;79.80
80279;DHT22;70683;52.492;13.416;2023-11-18T12:14:17;9.60;80.00
80279;DHT22;70683;52.492;13.416;2023-11-18T12:17:06;9.60;80.50
80279;DHT22;70683;52.492;13.416;2023-11-18T12:19:36;9.60;80.30
80279;DHT22;70683;52.492;13.416;2023-11-18T12:22:23;9.50;80.40
80279;DHT22;70683;52.492;13.416;2023-11-18T12:25:28;9.50;80.30
80279;DHT22;70683;52.492;13.416;2023-11-18T12:27:57;9.40;80.90
80279;DHT22;70683;52.492;13.416;2023-11-18T12:30:40;9.30;81.10
80279;DHT22;70683;52.492;13.416;2023-11-18T12:33:09;9.30;81.20
80279;DHT22;70683;52.492;13.416;2023-11-18T12:35:46;9.40;80.50
80279;DHT22;70683;52.492;13.416;2023-11-18T12:41:35;9.30;80.60
80279;DHT22;70683;52.492;13.416;2023-11-18T12:44:29;9.30;80.20
80279;DHT22;70683;52.492;13.416;2023-11-18T12:46:54;9.30;81.30
80279;DHT22;70683;52.492;13.416;2023-11-18T12:49:23;9.30;80.20
80279;DHT22;70683;52.492;13.416;2023-11-18T12:51:51;9.30;80.10
80279;DHT22;70683;52.492;13.416;2023-11-18T12:54:20;9.30;80.10
80279;DHT22;70683;52.492;13.416;2023-11-18T12:56:47;9.30;79.90
80279;DHT22;70683;52.492;13.416;2023-11-18T12:59:16;9.30;79.40
80279;DHT22;70683;52.492;13.416;2023-11-18T13:01:46;9.40;79.20
80279;DHT22;70683;52.492;13.416;2023-11-18T13:04:15;9.40;79.00
80279;DHT22;70683;52.492;13.416;2023-11-18T13:06:42;9.50;78.90
80279;DHT22;70683;52.492;13.416;2023-11-18T13:09:09;9.50;78.60
80279;DHT22;70683;52.492;13.416;2023-11-18T13:11:37;9.50;78.40
80279;DHT22;70683;52.492;13.416;2023-11-18T13:14:05;9.60;77.40
80279;DHT22;70683;52.492;13.416;2023-11-18T13:16:34;9.60;76.80
80279;DHT22;70683;52.492;13.416;2023-11-18T13:19:01;9.60;77.00
80279;DHT22;70683;52.492;13.416;2023-11-18T13:21:29;9.50;76.60
80279;DHT22;70683;52.492;13.416;2023-11-18T13:23:56;9.50;75.90
80279;DHT22;70683;52.492;13.416;2023-11-18T13:26:23;9.30;76.10
80279;DHT22;70683;52.492;13.416;2023-11-18T13:28:50;9.20;77.40
80279;DHT22;70683;52.492;13.416;2023-11-18T13:31:17;9.20;77.10
80279;DHT22;70683;52.492;13.416;2023-11-18T13:33:46;9.20;77.50
80279;DHT22;70683;52.492;13.416;2023-11-18T13:36:13;9.20;77.30
80279;DHT22;70683;52.492;13.416;2023-11-18T13:38:41;9.20;77.10
80279;DHT22;70683;52.492;13.416;2023-11-18T13:41:10;9.10;77.30
80279;DHT22;70683;52.492;13.416;2023-11-18T13:43:44;9.20;77.10
80279;DHT22;70683;52.492;13.416;2023-11-18T13:46:13;9.10;76.60
80279;DHT22;70683;52.492;13.416;2023-11-18T13:48:41;9.00;77.50
80279;DHT22;70683;52.492;13.416;2023-11-18T13:51:10;8.90;78.30
80279;DHT22;70683;52.492;13.416;2023-11-18T13:53:40;8.90;78.50
80279;DHT22;70683;52.492;13.416;2023-11-18T13:56:08;8.90;78.60
80279;DHT22;70683;52.492;13.416;2023-11-18T13:58:35;8.80;78.70
80279;DHT22;70683;52.492;13.416;2023-11-18T14:01:07;8.70;78.70
80279;DHT22;70683;52.492;13.416;2023-11-18T14:03:35;8.60;79.30
80279;DHT22;70683;52.492;13.416;2023-11-18T14:06:07;8.60;79.40
80279;DHT22;70683;52.492;13.416;2023-11-18T14:08:37;8.60;79.90
80279;DHT22;70683;52.492;13.416;2023-11-18T14:11:05;8.50;80.20
80279;DHT22;70683;52.492;13.416;2023-11-18T14:13:34;8.40;80.40
80279;DHT22;70683;52.492;13.416;2023-11-18T14:16:01;8.30;80.60
80279;DHT22;70683;52.492;13.416;2023-11-18T14:18:29;8.30;80.70
80279;DHT22;70683;52.492;13.416;2023-11-18T14:20:56;8.30;80.80
80279;DHT22;70683;52.492;13.416;2023-11-18T14:23:23;8.30;81.20
80279;DHT22;70683;52.492;13.416;2023-11-18T14:25:51;8.20;81.60
80279;DHT22;70683;52.492;13.416;2023-11-18T14:28:17;8.20;81.90
80279;DHT22;70683;52.492;13.416;2023-11-18T14:30:44;8.20;81.80
80279;DHT22;70683;52.492;13.416;2023-11-18T14:33:11;8.10;82.30
80279;DHT22;70683;52.492;13.416;2023-11-18T14:35:38;8.10;82.50
80279;DHT22;70683;52.492;13.416;2023-11-18T14:38:06;8.10;82.40
80279;DHT22;70683;52.492;13.416;2023-11-18T14:40:34;8.10;82.30
80279;DHT22;70683;52.492;13.416;2023-11-18T14:43:00;8.00;82.40
80279;DHT22;70683;52.492;13.416;2023-11-18T14:45:27;8.00;82.50
80279;DHT22;70683;52.492;13.416;2023-11-18T14:47:54;8.00;82.30
80279;DHT22;70683;52.492;13.416;2023-11-18T14:50:22;8.10;82.00
80279;DHT22;70683;52.492;13.416;2023-11-18T14:52:51;8.10;82.20
80279;DHT22;70683;52.492;13.416;2023-11-18T14:55:20;8.10;82.40
80279;DHT22;70683;52.492;13.416;2023-11-18T14:57:47;8.10;82.40
80279;DHT22;70683;52.492;13.416;2023-11-18T15:00:14;8.10;82.30
80279;DHT22;70683;52.492;13.416;2023-11-18T15:02:49;8.10;82.60
80279;DHT22;70683;52.492;13.416;2023-11-18T15:05:18;8.10;82.70
80279;DHT22;70683;52.492;13.416;2023-11-18T15:07:47;8.10;83.10
80279;DHT22;70683;52.492;13.416;2023-11-18T15:10:15;8.00;83.30
80279;DHT22;70683;52.492;13.416;2023-11-18T15:12:44;8.10;83.60
80279;DHT22;70683;52.492;13.416;2023-11-18T15:15:11;8.00;83.80
80279;DHT22;70683;52.492;13.416;2023-11-18T15:17:39;8.10;83.60
80279;DHT22;70683;52.492;13.416;2023-11-18T15:20:06;8.20;83.50
80279;DHT22;70683;52.492;13.416;2023-11-18T15:22:35;8.20;84.20
80279;DHT22;70683;52.492;13.416;2023-11-18T15:25:02;8.20;83.50
80279;DHT22;70683;52.492;13.416;2023-11-18T15:27:28;8.20;83.70
80279;DHT22;70683;52.492;13.416;2023-11-18T15:29:57;8.20;83.50
80279;DHT22;70683;52.492;13.416;2023-11-18T15:32:23;8.20;83.80
80279;DHT22;70683;52.492;13.416;2023-11-18T15:34:52;8.10;84.10
80279;DHT22;70683;52.492;13.416;2023-11-18T15:37:19;8.10;83.40
80279;DHT22;70683;52.492;13.416;2023-11-18T15:39:46;8.10;83.30
80279;DHT22;70683;52.492;13.416;2023-11-18T15:42:13;8.10;83.60
80279;DHT22;70683;52.492;13.416;2023-11-18T15:44:40;8.10;83.60